OCN5PZ EDDM-LGSM
Flight info
| Callsign | OCN5PZ |
|---|---|
| Flight time | 2h 25m |
| Altitude | 33000 |
| Route | VAVOR3Q VAVOR M867 RADIZ DCT NIPEL/N0456F350 DCT ELTIB DCT GLOMY DCT INLOT DCT PINDO DCT PIKOS DCT KEA/N0417F230 L995 RIPLI P32 IKARO L609 URNIL |
| Aircraft | A320/M-SDE3FGHIRWY/LB1 |
Departure
| Time | 2026-05-01 09:00 |
|---|---|
| Airport | Munich Airport (EDDM) |
Arrival
| Time | 2026-05-01 11:25 |
|---|---|
| Airport | Samos Airport (LGSM) |
| Time | Latitude | Longitude | Altitude | Speed | Heading |
|---|---|---|---|---|---|
| 2026-05-01 08:26 | 48.35666 | 11.79943 | 1474 ft | 0 kts | 263° |
| 2026-05-01 08:47 | 48.35666 | 11.79945 | 1485 ft | 2 kts | 263° |
| 2026-05-01 08:48 | 48.35671 | 11.79984 | 1480 ft | 4 kts | 251° |
| 2026-05-01 08:48 | 48.35681 | 11.80021 | 1483 ft | 4 kts | 238° |
| 2026-05-01 08:48 | 48.35698 | 11.80052 | 1473 ft | 4 kts | 220° |
| 2026-05-01 08:48 | 48.35720 | 11.80073 | 1472 ft | 4 kts | 191° |
| 2026-05-01 08:49 | 48.35731 | 11.80075 | 1474 ft | 0 kts | 176° |
| 2026-05-01 08:50 | 48.35721 | 11.80076 | 1472 ft | 3 kts | 175° |
| 2026-05-01 08:51 | 48.35684 | 11.80087 | 1485 ft | 8 kts | 160° |
| 2026-05-01 08:51 | 48.35616 | 11.80105 | 1479 ft | 12 kts | 173° |
| 2026-05-01 08:51 | 48.35519 | 11.80122 | 1480 ft | 16 kts | 173° |
| 2026-05-01 08:51 | 48.35403 | 11.80146 | 1481 ft | 18 kts | 165° |
| 2026-05-01 08:52 | 48.35273 | 11.80176 | 1475 ft | 19 kts | 174° |
| 2026-05-01 08:52 | 48.35167 | 11.80149 | 1474 ft | 15 kts | 248° |
| 2026-05-01 08:52 | 48.35153 | 11.79989 | 1485 ft | 16 kts | 263° |
| 2026-05-01 08:52 | 48.35142 | 11.79845 | 1471 ft | 14 kts | 263° |
| 2026-05-01 08:53 | 48.35134 | 11.79738 | 1485 ft | 0 kts | 263° |
| 2026-05-01 08:53 | 48.35133 | 11.79727 | 1485 ft | 4 kts | 263° |
| 2026-05-01 08:54 | 48.35101 | 11.79662 | 1483 ft | 12 kts | 205° |
| 2026-05-01 08:54 | 48.35001 | 11.79668 | 1485 ft | 16 kts | 173° |
| 2026-05-01 08:54 | 48.34887 | 11.79689 | 1485 ft | 16 kts | 173° |
| 2026-05-01 08:54 | 48.34797 | 11.79630 | 1485 ft | 17 kts | 261° |
| 2026-05-01 08:55 | 48.34783 | 11.79449 | 1475 ft | 19 kts | 264° |
| 2026-05-01 08:55 | 48.34766 | 11.79236 | 1480 ft | 22 kts | 264° |
| 2026-05-01 08:55 | 48.34747 | 11.78982 | 1485 ft | 26 kts | 263° |
| 2026-05-01 08:55 | 48.34725 | 11.78693 | 1485 ft | 29 kts | 264° |
| 2026-05-01 08:56 | 48.34700 | 11.78379 | 1477 ft | 31 kts | 264° |
| 2026-05-01 08:56 | 48.34674 | 11.78041 | 1485 ft | 34 kts | 263° |
| 2026-05-01 08:56 | 48.34646 | 11.77681 | 1485 ft | 35 kts | 263° |
| 2026-05-01 08:56 | 48.34624 | 11.77392 | 1480 ft | 27 kts | 263° |
| 2026-05-01 08:57 | 48.34603 | 11.77115 | 1485 ft | 28 kts | 263° |
| 2026-05-01 08:57 | 48.34579 | 11.76817 | 1480 ft | 30 kts | 263° |
| 2026-05-01 08:57 | 48.34555 | 11.76501 | 1485 ft | 32 kts | 263° |
| 2026-05-01 08:57 | 48.34529 | 11.76159 | 1485 ft | 34 kts | 263° |
| 2026-05-01 08:58 | 48.34501 | 11.75795 | 1483 ft | 36 kts | 263° |
| 2026-05-01 08:58 | 48.34476 | 11.75463 | 1485 ft | 26 kts | 263° |
| 2026-05-01 08:58 | 48.34446 | 11.75240 | 1472 ft | 19 kts | 225° |
| 2026-05-01 08:58 | 48.34333 | 11.75231 | 1485 ft | 15 kts | 173° |
| 2026-05-01 08:59 | 48.34224 | 11.75249 | 1485 ft | 17 kts | 174° |
| 2026-05-01 08:59 | 48.34112 | 11.75262 | 1478 ft | 15 kts | 165° |
| 2026-05-01 08:59 | 48.34088 | 11.75362 | 1485 ft | 10 kts | 82° |
| 2026-05-01 08:59 | 48.34112 | 11.75688 | 1481 ft | 64 kts | 83° |
| 2026-05-01 09:00 | 48.34188 | 11.76656 | 1485 ft | 121 kts | 83° |
| 2026-05-01 09:00 | 48.34302 | 11.78140 | 1538 ft | 159 kts | 83° |
| 2026-05-01 09:00 | 48.34416 | 11.79768 | 2232 ft | 156 kts | 84° |
| 2026-05-01 09:00 | 48.34535 | 11.81387 | 2958 ft | 156 kts | 84° |
| 2026-05-01 09:01 | 48.34661 | 11.83055 | 3390 ft | 171 kts | 85° |
| 2026-05-01 09:01 | 48.34805 | 11.84940 | 3646 ft | 193 kts | 85° |
| 2026-05-01 09:01 | 48.34966 | 11.87079 | 4014 ft | 216 kts | 84° |
| 2026-05-01 09:01 | 48.35141 | 11.89362 | 4755 ft | 223 kts | 85° |
| 2026-05-01 09:02 | 48.35323 | 11.91710 | 5508 ft | 229 kts | 85° |
| 2026-05-01 09:02 | 48.35371 | 11.94113 | 6269 ft | 232 kts | 101° |
| 2026-05-01 09:02 | 48.34727 | 11.96347 | 7006 ft | 239 kts | 127° |
| 2026-05-01 09:02 | 48.33495 | 11.98009 | 7715 ft | 245 kts | 140° |
| 2026-05-01 09:03 | 48.32133 | 11.99594 | 8450 ft | 250 kts | 140° |
| 2026-05-01 09:03 | 48.30742 | 12.01189 | 9187 ft | 254 kts | 143° |
| 2026-05-01 09:03 | 48.29121 | 12.02345 | 9925 ft | 264 kts | 160° |
| 2026-05-01 09:03 | 48.27224 | 12.02719 | 10317 ft | 288 kts | 179° |
| 2026-05-01 09:04 | 48.25189 | 12.02577 | 10860 ft | 296 kts | 180° |
| 2026-05-01 09:04 | 48.23111 | 12.02436 | 11518 ft | 301 kts | 179° |
| 2026-05-01 09:04 | 48.21004 | 12.02299 | 12202 ft | 305 kts | 179° |
| 2026-05-01 09:04 | 48.18867 | 12.02165 | 12864 ft | 309 kts | 179° |
| 2026-05-01 09:05 | 48.16708 | 12.02035 | 13535 ft | 313 kts | 178° |
| 2026-05-01 09:05 | 48.14570 | 12.02264 | 14188 ft | 313 kts | 165° |
| 2026-05-01 09:05 | 48.12495 | 12.03207 | 14775 ft | 312 kts | 152° |
| 2026-05-01 09:05 | 48.10497 | 12.04511 | 15355 ft | 315 kts | 152° |
| 2026-05-01 09:06 | 48.08472 | 12.05823 | 15940 ft | 319 kts | 152° |
| 2026-05-01 09:06 | 48.06427 | 12.07140 | 16534 ft | 322 kts | 152° |
| 2026-05-01 09:06 | 48.04361 | 12.08466 | 17116 ft | 325 kts | 152° |
| 2026-05-01 09:06 | 48.02274 | 12.09802 | 17713 ft | 328 kts | 152° |
| 2026-05-01 09:07 | 48.00169 | 12.11147 | 18309 ft | 331 kts | 152° |
| 2026-05-01 09:07 | 47.98047 | 12.12502 | 18873 ft | 333 kts | 151° |
| 2026-05-01 09:07 | 47.95939 | 12.13851 | 19372 ft | 336 kts | 151° |
| 2026-05-01 09:07 | 47.93815 | 12.15328 | 19860 ft | 335 kts | 144° |
| 2026-05-01 09:08 | 47.91902 | 12.17322 | 20127 ft | 341 kts | 134° |
| 2026-05-01 09:08 | 47.90058 | 12.19660 | 20256 ft | 355 kts | 134° |
| 2026-05-01 09:08 | 47.88143 | 12.22099 | 20382 ft | 370 kts | 134° |
| 2026-05-01 09:08 | 47.86150 | 12.24629 | 20508 ft | 383 kts | 134° |
| 2026-05-01 09:09 | 47.84081 | 12.27238 | 20632 ft | 396 kts | 135° |
| 2026-05-01 09:09 | 47.81949 | 12.29917 | 20759 ft | 407 kts | 135° |
| 2026-05-01 09:09 | 47.79755 | 12.32663 | 20968 ft | 415 kts | 135° |
| 2026-05-01 09:09 | 47.77559 | 12.35399 | 21331 ft | 419 kts | 135° |
| 2026-05-01 09:10 | 47.75315 | 12.38186 | 21737 ft | 422 kts | 135° |
| 2026-05-01 09:10 | 47.73055 | 12.40989 | 22101 ft | 425 kts | 135° |
| 2026-05-01 09:10 | 47.70780 | 12.43814 | 22481 ft | 428 kts | 135° |
| 2026-05-01 09:10 | 47.68488 | 12.46653 | 22868 ft | 430 kts | 135° |
| 2026-05-01 09:11 | 47.66176 | 12.49504 | 23212 ft | 433 kts | 135° |
| 2026-05-01 09:11 | 47.63853 | 12.52365 | 23576 ft | 436 kts | 135° |
| 2026-05-01 09:11 | 47.61519 | 12.55258 | 23923 ft | 438 kts | 134° |
| 2026-05-01 09:11 | 47.59228 | 12.58242 | 24151 ft | 440 kts | 133° |
| 2026-05-01 09:12 | 47.56994 | 12.61271 | 24396 ft | 441 kts | 132° |
| 2026-05-01 09:12 | 47.54750 | 12.64375 | 24766 ft | 443 kts | 131° |
| 2026-05-01 09:12 | 47.52496 | 12.67499 | 25096 ft | 445 kts | 131° |
| 2026-05-01 09:12 | 47.50222 | 12.70622 | 25410 ft | 447 kts | 131° |
| 2026-05-01 09:13 | 47.47928 | 12.73737 | 25697 ft | 450 kts | 132° |
| 2026-05-01 09:13 | 47.45608 | 12.76859 | 26001 ft | 452 kts | 132° |
| 2026-05-01 09:13 | 47.43270 | 12.79983 | 26279 ft | 454 kts | 132° |
| 2026-05-01 09:13 | 47.40915 | 12.83116 | 26559 ft | 456 kts | 132° |
| 2026-05-01 09:14 | 47.38552 | 12.86258 | 26820 ft | 458 kts | 132° |
| 2026-05-01 09:14 | 47.36184 | 12.89412 | 27084 ft | 460 kts | 132° |
| 2026-05-01 09:14 | 47.33834 | 12.92544 | 27316 ft | 462 kts | 132° |
| 2026-05-01 09:14 | 47.31446 | 12.95726 | 27602 ft | 464 kts | 132° |
| 2026-05-01 09:15 | 47.29047 | 12.98919 | 27860 ft | 465 kts | 132° |
| 2026-05-01 09:15 | 47.26640 | 13.02121 | 28137 ft | 467 kts | 132° |
| 2026-05-01 09:15 | 47.24229 | 13.05324 | 28516 ft | 466 kts | 132° |
| 2026-05-01 09:15 | 47.21824 | 13.08511 | 28888 ft | 465 kts | 132° |
| 2026-05-01 09:16 | 47.19419 | 13.11696 | 29254 ft | 465 kts | 132° |
| 2026-05-01 09:16 | 47.17018 | 13.14872 | 29594 ft | 464 kts | 132° |
| 2026-05-01 09:16 | 47.14648 | 13.18007 | 29933 ft | 464 kts | 132° |
| 2026-05-01 09:17 | 47.09850 | 13.24334 | 30525 ft | 463 kts | 132° |
| 2026-05-01 09:17 | 47.07452 | 13.27489 | 30865 ft | 463 kts | 131° |
| 2026-05-01 09:17 | 47.02666 | 13.33774 | 31486 ft | 461 kts | 131° |
| 2026-05-01 09:18 | 47.00277 | 13.36909 | 31777 ft | 461 kts | 131° |
| 2026-05-01 09:18 | 46.95495 | 13.43164 | 32302 ft | 461 kts | 131° |
| 2026-05-01 09:19 | 46.90748 | 13.49358 | 32912 ft | 461 kts | 131° |
| 2026-05-01 09:19 | 46.88358 | 13.52470 | 33204 ft | 461 kts | 131° |
| 2026-05-01 09:19 | 46.85964 | 13.55588 | 33353 ft | 462 kts | 131° |
| 2026-05-01 09:20 | 46.81162 | 13.61824 | 33361 ft | 460 kts | 131° |
| 2026-05-01 09:21 | 46.71654 | 13.74125 | 33377 ft | 459 kts | 130° |
| 2026-05-01 09:21 | 46.64476 | 13.83372 | 33387 ft | 459 kts | 130° |
| 2026-05-01 09:22 | 46.54928 | 13.95617 | 33418 ft | 459 kts | 130° |
| 2026-05-01 09:23 | 46.47740 | 14.04805 | 33426 ft | 458 kts | 130° |
| 2026-05-01 09:24 | 46.43053 | 14.11052 | 33713 ft | 457 kts | 129° |
| 2026-05-01 09:24 | 46.40745 | 14.14196 | 34035 ft | 456 kts | 128° |
| 2026-05-01 09:24 | 46.36116 | 14.20467 | 34607 ft | 455 kts | 128° |
| 2026-05-01 09:25 | 46.31502 | 14.26644 | 35057 ft | 455 kts | 129° |
| 2026-05-01 09:25 | 46.26836 | 14.32843 | 35402 ft | 456 kts | 129° |
| 2026-05-01 09:26 | 46.24499 | 14.35944 | 35408 ft | 457 kts | 129° |
| 2026-05-01 09:26 | 46.17481 | 14.45243 | 35410 ft | 456 kts | 129° |
| 2026-05-01 09:27 | 46.10498 | 14.54463 | 35407 ft | 455 kts | 129° |
| 2026-05-01 09:28 | 46.05830 | 14.60619 | 35408 ft | 455 kts | 129° |
| 2026-05-01 09:28 | 46.01155 | 14.66762 | 35409 ft | 455 kts | 129° |
| 2026-05-01 09:29 | 45.94156 | 14.75911 | 35402 ft | 456 kts | 129° |
| 2026-05-01 09:30 | 45.87127 | 14.85093 | 35426 ft | 455 kts | 129° |
| 2026-05-01 09:30 | 45.80096 | 14.94244 | 35423 ft | 455 kts | 129° |
| 2026-05-01 09:31 | 45.75402 | 15.00324 | 35421 ft | 455 kts | 129° |
| 2026-05-01 09:32 | 45.68381 | 15.09400 | 35429 ft | 455 kts | 130° |
| 2026-05-01 09:32 | 45.61344 | 15.18480 | 35415 ft | 455 kts | 130° |
| 2026-05-01 09:33 | 45.56641 | 15.24523 | 35414 ft | 455 kts | 130° |
| 2026-05-01 09:34 | 45.49601 | 15.33536 | 35413 ft | 456 kts | 130° |
| 2026-05-01 09:34 | 45.42508 | 15.42574 | 35403 ft | 456 kts | 130° |
| 2026-05-01 09:35 | 45.35410 | 15.51614 | 35397 ft | 456 kts | 130° |
| 2026-05-01 09:36 | 45.30705 | 15.57587 | 35399 ft | 457 kts | 130° |
| 2026-05-01 09:36 | 45.25954 | 15.63590 | 35424 ft | 458 kts | 131° |
| 2026-05-01 09:37 | 45.21194 | 15.69596 | 35410 ft | 458 kts | 131° |
| 2026-05-01 09:37 | 45.14045 | 15.78600 | 35393 ft | 458 kts | 131° |
| 2026-05-01 09:38 | 45.06906 | 15.87538 | 35386 ft | 459 kts | 131° |
| 2026-05-01 09:39 | 44.99720 | 15.96515 | 35405 ft | 460 kts | 133° |
| 2026-05-01 09:39 | 44.94925 | 16.02500 | 35390 ft | 460 kts | 133° |
| 2026-05-01 09:40 | 44.87749 | 16.11427 | 35382 ft | 461 kts | 133° |
| 2026-05-01 09:41 | 44.82935 | 16.17393 | 35400 ft | 461 kts | 133° |
| 2026-05-01 09:41 | 44.75701 | 16.26318 | 35372 ft | 461 kts | 133° |
| 2026-05-01 09:42 | 44.70900 | 16.32222 | 35363 ft | 462 kts | 133° |
| 2026-05-01 09:43 | 44.61219 | 16.44108 | 35384 ft | 462 kts | 134° |
| 2026-05-01 09:43 | 44.56369 | 16.50039 | 35374 ft | 463 kts | 134° |
| 2026-05-01 09:44 | 44.49109 | 16.58893 | 35357 ft | 464 kts | 134° |
| 2026-05-01 09:45 | 44.44230 | 16.64827 | 35345 ft | 465 kts | 134° |
| 2026-05-01 09:45 | 44.36908 | 16.73725 | 35349 ft | 465 kts | 134° |
| 2026-05-01 09:46 | 44.32012 | 16.79643 | 35349 ft | 466 kts | 135° |
| 2026-05-01 09:46 | 44.27113 | 16.85475 | 35334 ft | 467 kts | 136° |
| 2026-05-01 09:47 | 44.22096 | 16.91250 | 35327 ft | 468 kts | 136° |
| 2026-05-01 09:47 | 44.17061 | 16.97005 | 35342 ft | 468 kts | 136° |
| 2026-05-01 09:48 | 44.12066 | 17.02731 | 35340 ft | 468 kts | 136° |
| 2026-05-01 09:48 | 44.07050 | 17.08494 | 35313 ft | 468 kts | 136° |
| 2026-05-01 09:49 | 44.02023 | 17.14267 | 35303 ft | 469 kts | 137° |
| 2026-05-01 09:49 | 43.96981 | 17.20030 | 35292 ft | 470 kts | 136° |
| 2026-05-01 09:50 | 43.91916 | 17.25788 | 35304 ft | 471 kts | 137° |
| 2026-05-01 09:50 | 43.86885 | 17.31501 | 35292 ft | 472 kts | 137° |
| 2026-05-01 09:51 | 43.81753 | 17.37326 | 35307 ft | 482 kts | 137° |
| 2026-05-01 09:51 | 43.76527 | 17.43251 | 35288 ft | 487 kts | 138° |
| 2026-05-01 09:52 | 43.71278 | 17.49185 | 35284 ft | 488 kts | 138° |
| 2026-05-01 09:52 | 43.66002 | 17.55133 | 35285 ft | 490 kts | 138° |
| 2026-05-01 09:53 | 43.60756 | 17.61022 | 35274 ft | 490 kts | 139° |
| 2026-05-01 09:53 | 43.55464 | 17.66950 | 35283 ft | 489 kts | 139° |
| 2026-05-01 09:54 | 43.50248 | 17.72963 | 35284 ft | 489 kts | 137° |
| 2026-05-01 09:54 | 43.45098 | 17.79067 | 35292 ft | 488 kts | 137° |
| 2026-05-01 09:55 | 43.39970 | 17.85113 | 35234 ft | 490 kts | 137° |
| 2026-05-01 09:55 | 43.34761 | 17.91175 | 35225 ft | 492 kts | 137° |
| 2026-05-01 09:56 | 43.29522 | 17.97215 | 35224 ft | 493 kts | 137° |
| 2026-05-01 09:56 | 43.24272 | 18.03270 | 35232 ft | 493 kts | 137° |
| 2026-05-01 09:57 | 43.19061 | 18.09292 | 35251 ft | 493 kts | 138° |
| 2026-05-01 09:57 | 43.13827 | 18.15333 | 35233 ft | 492 kts | 138° |
| 2026-05-01 09:58 | 43.08583 | 18.21363 | 35227 ft | 492 kts | 138° |
| 2026-05-01 09:58 | 43.03323 | 18.27387 | 35216 ft | 493 kts | 138° |
| 2026-05-01 09:59 | 42.98098 | 18.33366 | 35225 ft | 493 kts | 138° |
| 2026-05-01 09:59 | 42.92840 | 18.39367 | 35231 ft | 492 kts | 139° |
| 2026-05-01 10:00 | 42.87576 | 18.45350 | 35220 ft | 493 kts | 140° |
| 2026-05-01 10:00 | 42.82304 | 18.51332 | 35200 ft | 494 kts | 140° |
| 2026-05-01 10:01 | 42.77007 | 18.57321 | 35174 ft | 496 kts | 140° |
| 2026-05-01 10:01 | 42.71743 | 18.63279 | 35188 ft | 496 kts | 140° |
| 2026-05-01 10:02 | 42.66446 | 18.69272 | 35193 ft | 495 kts | 140° |
| 2026-05-01 10:02 | 42.61147 | 18.75249 | 35184 ft | 495 kts | 140° |
| 2026-05-01 10:03 | 42.55867 | 18.81168 | 35187 ft | 496 kts | 141° |
| 2026-05-01 10:03 | 42.50540 | 18.87123 | 35185 ft | 496 kts | 140° |
| 2026-05-01 10:04 | 42.45215 | 18.93081 | 35191 ft | 496 kts | 140° |
| 2026-05-01 10:04 | 42.39884 | 18.99030 | 35190 ft | 496 kts | 141° |
| 2026-05-01 10:05 | 42.34593 | 19.04919 | 35200 ft | 496 kts | 141° |
| 2026-05-01 10:05 | 42.29257 | 19.10835 | 35206 ft | 496 kts | 141° |
| 2026-05-01 10:06 | 42.23921 | 19.16745 | 35213 ft | 496 kts | 141° |
| 2026-05-01 10:06 | 42.18589 | 19.22648 | 35174 ft | 496 kts | 142° |
| 2026-05-01 10:07 | 42.13246 | 19.28544 | 35166 ft | 496 kts | 142° |
| 2026-05-01 10:07 | 42.07932 | 19.34385 | 35168 ft | 497 kts | 142° |
| 2026-05-01 10:08 | 41.99890 | 19.43203 | 35162 ft | 497 kts | 142° |
| 2026-05-01 10:09 | 41.94494 | 19.49012 | 35156 ft | 497 kts | 143° |
| 2026-05-01 10:09 | 41.89025 | 19.54607 | 35142 ft | 498 kts | 145° |
| 2026-05-01 10:10 | 41.83494 | 19.60204 | 35143 ft | 499 kts | 144° |
| 2026-05-01 10:10 | 41.75216 | 19.68674 | 35140 ft | 500 kts | 144° |
| 2026-05-01 10:11 | 41.69698 | 19.74332 | 35119 ft | 500 kts | 144° |
| 2026-05-01 10:11 | 41.64204 | 19.79928 | 35119 ft | 500 kts | 145° |
| 2026-05-01 10:12 | 41.59559 | 19.84656 | 35116 ft | 501 kts | 145° |
| 2026-05-01 10:13 | 41.50331 | 19.94033 | 35118 ft | 502 kts | 145° |
| 2026-05-01 10:13 | 41.44803 | 19.99626 | 35103 ft | 502 kts | 146° |
| 2026-05-01 10:14 | 41.36446 | 20.08068 | 35112 ft | 503 kts | 146° |
| 2026-05-01 10:14 | 41.30863 | 20.13683 | 35124 ft | 503 kts | 146° |
| 2026-05-01 10:15 | 41.25273 | 20.19292 | 35119 ft | 504 kts | 146° |
| 2026-05-01 10:15 | 41.19716 | 20.24864 | 35113 ft | 504 kts | 146° |
| 2026-05-01 10:16 | 41.14112 | 20.30468 | 35130 ft | 504 kts | 146° |
| 2026-05-01 10:17 | 41.05643 | 20.38914 | 35170 ft | 509 kts | 146° |
| 2026-05-01 10:17 | 40.97201 | 20.47303 | 35187 ft | 507 kts | 147° |
| 2026-05-01 10:18 | 40.88733 | 20.55690 | 35179 ft | 507 kts | 147° |
| 2026-05-01 10:19 | 40.83065 | 20.61286 | 35194 ft | 509 kts | 147° |
| 2026-05-01 10:19 | 40.77448 | 20.66833 | 35184 ft | 507 kts | 147° |
| 2026-05-01 10:20 | 40.68974 | 20.75164 | 35153 ft | 506 kts | 147° |
| 2026-05-01 10:20 | 40.63319 | 20.80704 | 35165 ft | 507 kts | 147° |
| 2026-05-01 10:21 | 40.54817 | 20.89016 | 35169 ft | 507 kts | 148° |
| 2026-05-01 10:22 | 40.46380 | 20.97334 | 35169 ft | 509 kts | 145° |
| 2026-05-01 10:23 | 40.38356 | 21.06570 | 35167 ft | 514 kts | 141° |
| 2026-05-01 10:23 | 40.30422 | 21.16035 | 35195 ft | 514 kts | 143° |
| 2026-05-01 10:24 | 40.19649 | 21.28280 | 35211 ft | 515 kts | 143° |
| 2026-05-01 10:25 | 40.08838 | 21.40606 | 35203 ft | 516 kts | 143° |
| 2026-05-01 10:26 | 40.03464 | 21.46731 | 35213 ft | 517 kts | 143° |
| 2026-05-01 10:27 | 39.92639 | 21.59061 | 35232 ft | 517 kts | 142° |
| 2026-05-01 10:28 | 39.84717 | 21.68637 | 35215 ft | 519 kts | 142° |
| 2026-05-01 10:28 | 39.76820 | 21.78157 | 35221 ft | 518 kts | 142° |
| 2026-05-01 10:29 | 39.68805 | 21.87605 | 35215 ft | 519 kts | 143° |
| 2026-05-01 10:30 | 39.58150 | 22.00203 | 35208 ft | 521 kts | 143° |
| 2026-05-01 10:31 | 39.47402 | 22.12875 | 35223 ft | 523 kts | 143° |
| 2026-05-01 10:32 | 39.39312 | 22.22374 | 35218 ft | 524 kts | 143° |
| 2026-05-01 10:33 | 39.28523 | 22.34989 | 35213 ft | 526 kts | 143° |
| 2026-05-01 10:34 | 39.20373 | 22.44478 | 35221 ft | 526 kts | 143° |
| 2026-05-01 10:34 | 39.14923 | 22.50792 | 35221 ft | 527 kts | 144° |
| 2026-05-01 10:35 | 39.06790 | 22.60217 | 35210 ft | 527 kts | 144° |
| 2026-05-01 10:35 | 39.01345 | 22.66536 | 35270 ft | 527 kts | 144° |
| 2026-05-01 10:36 | 38.95880 | 22.72831 | 35404 ft | 528 kts | 144° |
| 2026-05-01 10:36 | 38.93175 | 22.75928 | 35513 ft | 527 kts | 144° |
| 2026-05-01 10:36 | 38.90436 | 22.79054 | 35626 ft | 527 kts | 144° |
| 2026-05-01 10:37 | 38.87702 | 22.82164 | 35768 ft | 525 kts | 144° |
| 2026-05-01 10:37 | 38.82160 | 22.88276 | 35588 ft | 529 kts | 145° |
| 2026-05-01 10:37 | 38.79414 | 22.91403 | 35240 ft | 528 kts | 144° |
| 2026-05-01 10:38 | 38.74002 | 22.97795 | 35221 ft | 530 kts | 143° |
| 2026-05-01 10:38 | 38.68562 | 23.04157 | 35220 ft | 530 kts | 144° |
| 2026-05-01 10:39 | 38.63094 | 23.10376 | 35214 ft | 529 kts | 145° |
| 2026-05-01 10:39 | 38.57561 | 23.16593 | 35209 ft | 529 kts | 145° |
| 2026-05-01 10:40 | 38.52037 | 23.22820 | 35165 ft | 530 kts | 146° |
| 2026-05-01 10:40 | 38.46509 | 23.29076 | 35172 ft | 532 kts | 146° |
| 2026-05-01 10:41 | 38.41001 | 23.35307 | 35180 ft | 533 kts | 146° |
| 2026-05-01 10:42 | 38.32653 | 23.44707 | 35181 ft | 534 kts | 146° |
| 2026-05-01 10:42 | 38.27075 | 23.50964 | 35186 ft | 534 kts | 146° |
| 2026-05-01 10:43 | 38.21494 | 23.57209 | 35200 ft | 534 kts | 146° |
| 2026-05-01 10:43 | 38.15943 | 23.63397 | 35183 ft | 534 kts | 146° |
| 2026-05-01 10:44 | 38.10357 | 23.69633 | 35188 ft | 534 kts | 146° |
| 2026-05-01 10:44 | 38.04769 | 23.75853 | 35188 ft | 535 kts | 146° |
| 2026-05-01 10:45 | 37.99221 | 23.82016 | 35181 ft | 534 kts | 146° |
| 2026-05-01 10:45 | 37.93633 | 23.88209 | 35150 ft | 534 kts | 146° |
| 2026-05-01 10:46 | 37.88029 | 23.94408 | 35165 ft | 535 kts | 146° |
| 2026-05-01 10:46 | 37.82427 | 24.00592 | 35169 ft | 535 kts | 146° |
| 2026-05-01 10:47 | 37.76813 | 24.06759 | 35173 ft | 535 kts | 147° |
| 2026-05-01 10:47 | 37.71238 | 24.12885 | 35172 ft | 535 kts | 146° |
| 2026-05-01 10:48 | 37.65622 | 24.19050 | 35127 ft | 535 kts | 146° |
| 2026-05-01 10:48 | 37.60019 | 24.25235 | 35143 ft | 538 kts | 142° |
| 2026-05-01 10:49 | 37.55411 | 24.32819 | 35148 ft | 554 kts | 122° |
| 2026-05-01 10:49 | 37.52614 | 24.41829 | 35134 ft | 559 kts | 110° |
| 2026-05-01 10:50 | 37.50201 | 24.51154 | 34614 ft | 559 kts | 110° |
| 2026-05-01 10:50 | 37.48980 | 24.55807 | 34372 ft | 560 kts | 110° |
| 2026-05-01 10:50 | 37.47752 | 24.60458 | 34138 ft | 560 kts | 110° |
| 2026-05-01 10:50 | 37.46521 | 24.65119 | 33866 ft | 561 kts | 110° |
| 2026-05-01 10:51 | 37.45293 | 24.69777 | 33597 ft | 561 kts | 110° |
| 2026-05-01 10:51 | 37.44065 | 24.74441 | 33331 ft | 562 kts | 110° |
| 2026-05-01 10:51 | 37.42851 | 24.79048 | 33066 ft | 562 kts | 110° |
| 2026-05-01 10:51 | 37.41621 | 24.83714 | 32807 ft | 562 kts | 110° |
| 2026-05-01 10:52 | 37.40389 | 24.88384 | 32545 ft | 562 kts | 110° |
| 2026-05-01 10:52 | 37.39155 | 24.93049 | 32288 ft | 563 kts | 110° |
| 2026-05-01 10:52 | 37.37917 | 24.97713 | 32029 ft | 563 kts | 110° |
| 2026-05-01 10:52 | 37.36671 | 25.02387 | 31768 ft | 563 kts | 110° |
| 2026-05-01 10:53 | 37.35427 | 25.07043 | 31512 ft | 562 kts | 110° |
| 2026-05-01 10:53 | 37.34179 | 25.11710 | 31256 ft | 562 kts | 110° |
| 2026-05-01 10:53 | 37.33068 | 25.15855 | 31044 ft | 562 kts | 110° |
| 2026-05-01 10:53 | 37.31820 | 25.20508 | 30799 ft | 562 kts | 110° |
| 2026-05-01 10:54 | 37.30833 | 25.25199 | 30559 ft | 564 kts | 100° |
| 2026-05-01 10:54 | 37.30446 | 25.30091 | 30318 ft | 563 kts | 89° |
| 2026-05-01 10:54 | 37.30700 | 25.34985 | 30022 ft | 560 kts | 78° |
| 2026-05-01 10:54 | 37.31569 | 25.39709 | 29738 ft | 553 kts | 68° |
| 2026-05-01 10:55 | 37.33007 | 25.44151 | 29456 ft | 545 kts | 57° |
| 2026-05-01 10:55 | 37.34925 | 25.48219 | 28614 ft | 539 kts | 49° |
| 2026-05-01 10:55 | 37.37190 | 25.51992 | 27395 ft | 540 kts | 46° |
| 2026-05-01 10:55 | 37.39448 | 25.55649 | 26577 ft | 534 kts | 46° |
| 2026-05-01 10:56 | 37.41732 | 25.59325 | 25584 ft | 532 kts | 47° |
| 2026-05-01 10:56 | 37.44005 | 25.62989 | 24612 ft | 531 kts | 47° |
| 2026-05-01 10:56 | 37.46251 | 25.66633 | 23895 ft | 522 kts | 48° |
| 2026-05-01 10:56 | 37.48461 | 25.70232 | 23309 ft | 518 kts | 48° |
| 2026-05-01 10:57 | 37.50662 | 25.73815 | 23053 ft | 517 kts | 48° |
| 2026-05-01 10:57 | 37.52858 | 25.77385 | 23035 ft | 516 kts | 48° |
| 2026-05-01 10:57 | 37.55030 | 25.80922 | 22006 ft | 504 kts | 49° |
| 2026-05-01 10:57 | 37.57149 | 25.84389 | 20640 ft | 493 kts | 49° |
| 2026-05-01 10:58 | 37.59189 | 25.87737 | 19388 ft | 484 kts | 49° |
| 2026-05-01 10:58 | 37.61213 | 25.91064 | 18463 ft | 472 kts | 49° |
| 2026-05-01 10:58 | 37.63200 | 25.94328 | 17820 ft | 466 kts | 49° |
| 2026-05-01 10:58 | 37.65155 | 25.97541 | 17214 ft | 459 kts | 49° |
| 2026-05-01 10:59 | 37.67083 | 26.00706 | 16645 ft | 452 kts | 49° |
| 2026-05-01 10:59 | 37.68982 | 26.03832 | 16055 ft | 445 kts | 49° |
| 2026-05-01 10:59 | 37.70849 | 26.06910 | 15535 ft | 439 kts | 49° |
| 2026-05-01 10:59 | 37.72696 | 26.09952 | 14996 ft | 434 kts | 49° |
| 2026-05-01 11:00 | 37.74515 | 26.12958 | 14469 ft | 429 kts | 50° |
| 2026-05-01 11:00 | 37.76292 | 26.15906 | 13880 ft | 426 kts | 50° |
| 2026-05-01 11:00 | 37.78078 | 26.18873 | 13230 ft | 422 kts | 50° |
| 2026-05-01 11:00 | 37.79842 | 26.21810 | 12584 ft | 418 kts | 50° |
| 2026-05-01 11:01 | 37.81591 | 26.24721 | 11918 ft | 414 kts | 50° |
| 2026-05-01 11:01 | 37.83100 | 26.27809 | 11237 ft | 415 kts | 66° |
| 2026-05-01 11:01 | 37.83680 | 26.31326 | 11013 ft | 404 kts | 88° |
| 2026-05-01 11:01 | 37.83321 | 26.34752 | 10895 ft | 384 kts | 108° |
| 2026-05-01 11:02 | 37.82185 | 26.37630 | 10754 ft | 352 kts | 129° |
| 2026-05-01 11:02 | 37.80576 | 26.39750 | 10622 ft | 330 kts | 142° |
| 2026-05-01 11:02 | 37.78865 | 26.41615 | 10494 ft | 320 kts | 142° |
| 2026-05-01 11:02 | 37.77190 | 26.43430 | 10282 ft | 313 kts | 142° |
| 2026-05-01 11:03 | 37.75544 | 26.45213 | 10223 ft | 312 kts | 142° |
| 2026-05-01 11:03 | 37.73902 | 26.46994 | 10082 ft | 310 kts | 142° |
| 2026-05-01 11:03 | 37.72271 | 26.48767 | 9597 ft | 314 kts | 142° |
| 2026-05-01 11:03 | 37.72015 | 26.49043 | 9468 ft | 317 kts | 142° |
| 2026-05-01 11:04 | 37.70388 | 26.50806 | 9160 ft | 312 kts | 142° |
| 2026-05-01 11:04 | 37.68780 | 26.52552 | 8906 ft | 306 kts | 142° |
| 2026-05-01 11:04 | 37.67029 | 26.53988 | 8552 ft | 297 kts | 163° |
| 2026-05-01 11:04 | 37.65051 | 26.54490 | 8154 ft | 287 kts | 185° |
| 2026-05-01 11:05 | 37.63129 | 26.54058 | 7754 ft | 278 kts | 206° |
| 2026-05-01 11:05 | 37.61497 | 26.52841 | 7371 ft | 269 kts | 227° |
| 2026-05-01 11:05 | 37.60333 | 26.51049 | 7120 ft | 263 kts | 246° |
| 2026-05-01 11:05 | 37.59719 | 26.48918 | 7032 ft | 258 kts | 263° |
| 2026-05-01 11:06 | 37.59684 | 26.46662 | 7039 ft | 256 kts | 281° |
| 2026-05-01 11:06 | 37.60225 | 26.44551 | 7039 ft | 256 kts | 298° |
| 2026-05-01 11:06 | 37.61283 | 26.42768 | 7041 ft | 260 kts | 314° |
| 2026-05-01 11:07 | 37.63945 | 26.39749 | 7045 ft | 255 kts | 319° |
| 2026-05-01 11:07 | 37.65320 | 26.38309 | 7044 ft | 259 kts | 319° |
| 2026-05-01 11:07 | 37.66705 | 26.36862 | 7054 ft | 257 kts | 319° |
| 2026-05-01 11:07 | 37.68076 | 26.35433 | 7051 ft | 256 kts | 321° |
| 2026-05-01 11:08 | 37.69643 | 26.34333 | 7049 ft | 259 kts | 337° |
| 2026-05-01 11:08 | 37.71419 | 26.33908 | 7047 ft | 264 kts | 356° |
| 2026-05-01 11:08 | 37.74892 | 26.35410 | 7054 ft | 279 kts | 36° |
| 2026-05-01 11:09 | 37.76166 | 26.37281 | 7050 ft | 287 kts | 57° |
| 2026-05-01 11:09 | 37.76838 | 26.39671 | 7037 ft | 292 kts | 79° |
| 2026-05-01 11:09 | 37.76756 | 26.42237 | 7039 ft | 295 kts | 103° |
| 2026-05-01 11:10 | 37.74504 | 26.46494 | 7039 ft | 300 kts | 139° |
| 2026-05-01 11:10 | 37.72941 | 26.48238 | 7039 ft | 299 kts | 141° |
| 2026-05-01 11:10 | 37.71892 | 26.49353 | 7038 ft | 296 kts | 141° |
| 2026-05-01 11:10 | 37.69785 | 26.51554 | 7035 ft | 298 kts | 142° |
| 2026-05-01 11:11 | 37.68185 | 26.53190 | 7031 ft | 293 kts | 147° |
| 2026-05-01 11:11 | 37.66348 | 26.54218 | 7030 ft | 288 kts | 171° |
| 2026-05-01 11:11 | 37.64378 | 26.54274 | 7028 ft | 282 kts | 194° |
| 2026-05-01 11:11 | 37.62579 | 26.53394 | 7033 ft | 275 kts | 218° |
| 2026-05-01 11:12 | 37.61615 | 26.52391 | 7033 ft | 269 kts | 232° |
| 2026-05-01 11:12 | 37.60617 | 26.50433 | 7030 ft | 264 kts | 252° |
| 2026-05-01 11:12 | 37.60244 | 26.48214 | 7038 ft | 255 kts | 272° |
| 2026-05-01 11:12 | 37.60715 | 26.45370 | 7046 ft | 252 kts | 296° |
| 2026-05-01 11:13 | 37.61729 | 26.43556 | 7035 ft | 256 kts | 313° |
| 2026-05-01 11:13 | 37.63024 | 26.42008 | 7038 ft | 255 kts | 317° |
| 2026-05-01 11:13 | 37.63905 | 26.41047 | 7038 ft | 253 kts | 318° |
| 2026-05-01 11:13 | 37.65711 | 26.39147 | 7041 ft | 252 kts | 319° |
| 2026-05-01 11:14 | 37.66611 | 26.38209 | 7040 ft | 254 kts | 319° |
| 2026-05-01 11:14 | 37.67978 | 26.36773 | 7051 ft | 257 kts | 319° |
| 2026-05-01 11:14 | 37.69486 | 26.35534 | 7055 ft | 261 kts | 334° |
| 2026-05-01 11:14 | 37.71847 | 26.35002 | 7051 ft | 267 kts | 1° |
| 2026-05-01 11:15 | 37.73662 | 26.35593 | 7047 ft | 274 kts | 22° |
| 2026-05-01 11:15 | 37.75209 | 26.37029 | 7049 ft | 282 kts | 43° |
| 2026-05-01 11:15 | 37.75974 | 26.38415 | 7042 ft | 287 kts | 60° |
| 2026-05-01 11:15 | 37.76513 | 26.40818 | 7038 ft | 291 kts | 84° |
| 2026-05-01 11:16 | 37.76258 | 26.43357 | 7042 ft | 294 kts | 109° |
| 2026-05-01 11:16 | 37.75218 | 26.45569 | 7043 ft | 296 kts | 134° |
| 2026-05-01 11:16 | 37.73712 | 26.47361 | 7041 ft | 296 kts | 140° |
| 2026-05-01 11:16 | 37.71638 | 26.49602 | 7038 ft | 298 kts | 141° |
| 2026-05-01 11:17 | 37.70587 | 26.50756 | 7030 ft | 296 kts | 135° |
| 2026-05-01 11:17 | 37.69355 | 26.52829 | 7028 ft | 296 kts | 117° |
| 2026-05-01 11:17 | 37.68664 | 26.55225 | 7023 ft | 296 kts | 99° |
| 2026-05-01 11:17 | 37.68525 | 26.57751 | 6875 ft | 284 kts | 88° |
| 2026-05-01 11:18 | 37.68538 | 26.60220 | 6650 ft | 277 kts | 88° |
| 2026-05-01 11:18 | 37.68552 | 26.62595 | 6516 ft | 264 kts | 88° |
| 2026-05-01 11:18 | 37.68563 | 26.64862 | 6390 ft | 253 kts | 88° |
| 2026-05-01 11:18 | 37.68574 | 26.67061 | 6277 ft | 249 kts | 88° |
| 2026-05-01 11:19 | 37.68584 | 26.69232 | 6166 ft | 247 kts | 88° |
| 2026-05-01 11:19 | 37.68506 | 26.71390 | 5961 ft | 247 kts | 101° |
| 2026-05-01 11:19 | 37.67854 | 26.73384 | 5718 ft | 246 kts | 118° |
| 2026-05-01 11:19 | 37.67040 | 26.75253 | 5474 ft | 247 kts | 117° |
| 2026-05-01 11:20 | 37.66225 | 26.77146 | 5259 ft | 244 kts | 117° |
| 2026-05-01 11:20 | 37.65420 | 26.79025 | 5027 ft | 242 kts | 117° |
| 2026-05-01 11:20 | 37.64624 | 26.80882 | 4724 ft | 238 kts | 116° |
| 2026-05-01 11:20 | 37.63849 | 26.82695 | 4391 ft | 233 kts | 116° |
| 2026-05-01 11:21 | 37.63092 | 26.84473 | 4053 ft | 228 kts | 115° |
| 2026-05-01 11:21 | 37.62696 | 26.85461 | 3866 ft | 223 kts | 107° |
| 2026-05-01 11:21 | 37.62502 | 26.87323 | 3552 ft | 210 kts | 77° |
| 2026-05-01 11:21 | 37.63009 | 26.88958 | 3242 ft | 199 kts | 51° |
| 2026-05-01 11:22 | 37.63958 | 26.90152 | 2892 ft | 191 kts | 39° |
| 2026-05-01 11:22 | 37.64834 | 26.91416 | 2449 ft | 190 kts | 55° |
| 2026-05-01 11:22 | 37.65357 | 26.92917 | 2083 ft | 185 kts | 68° |
| 2026-05-01 11:22 | 37.65661 | 26.94479 | 1769 ft | 181 kts | 74° |
| 2026-05-01 11:23 | 37.65912 | 26.96002 | 1585 ft | 173 kts | 69° |
| 2026-05-01 11:23 | 37.66449 | 26.97257 | 1475 ft | 153 kts | 39° |
| 2026-05-01 11:23 | 37.67318 | 26.97864 | 1337 ft | 137 kts | 7° |
| 2026-05-01 11:23 | 37.68217 | 26.97618 | 1216 ft | 139 kts | 324° |
| 2026-05-01 11:24 | 37.68623 | 26.96527 | 815 ft | 147 kts | 274° |
| 2026-05-01 11:24 | 37.68598 | 26.95258 | 543 ft | 141 kts | 281° |
| 2026-05-01 11:24 | 37.68804 | 26.92869 | 136 ft | 137 kts | 281° |
| 2026-05-01 11:25 | 37.68890 | 26.91693 | 31 ft | 126 kts | 274° |
| 2026-05-01 11:25 | 37.68959 | 26.90523 | 29 ft | 42 kts | 274° |
| 2026-05-01 11:25 | 37.68979 | 26.90242 | 29 ft | 15 kts | 292° |
| 2026-05-01 11:26 | 37.68980 | 26.90201 | 29 ft | 7 kts | 126° |
| 2026-05-01 11:26 | 37.68967 | 26.90412 | 29 ft | 21 kts | 93° |
| 2026-05-01 11:26 | 37.68955 | 26.90632 | 29 ft | 29 kts | 97° |
| 2026-05-01 11:27 | 37.68939 | 26.90883 | 29 ft | 28 kts | 93° |
| 2026-05-01 11:27 | 37.68942 | 26.91039 | 29 ft | 11 kts | 50° |
| 2026-05-01 11:27 | 37.69008 | 26.91085 | 29 ft | 10 kts | 58° |
| 2026-05-01 11:27 | 37.69006 | 26.91170 | 29 ft | 9 kts | 94° |
| 2026-05-01 11:28 | 37.69023 | 26.91227 | 29 ft | 7 kts | 18° |
| 2026-05-01 11:28 | 37.69062 | 26.91231 | 29 ft | 0 kts | 4° |
| 2026-05-01 11:28 | 37.69068 | 26.91232 | 29 ft | 1 kts | 4° |